createdAt,value
2022-12-20T00:02:22.111Z,3.30
2022-12-20T00:04:48.728Z,3.24
2022-12-20T00:07:16.123Z,3.23
2022-12-20T00:09:42.722Z,3.25
2022-12-20T00:12:10.319Z,3.22
2022-12-20T00:14:36.760Z,3.21
2022-12-20T00:17:03.514Z,3.20
2022-12-20T00:19:30.100Z,3.20
2022-12-20T00:21:59.698Z,3.22
2022-12-20T00:24:26.703Z,3.19
2022-12-20T00:26:53.891Z,3.21
2022-12-20T00:29:20.505Z,3.24
2022-12-20T00:31:47.355Z,3.24
2022-12-20T00:34:14.676Z,3.31
2022-12-20T00:36:41.261Z,3.52
2022-12-20T00:39:07.846Z,3.39
2022-12-20T00:41:34.440Z,3.39
2022-12-20T00:44:01.086Z,3.44
2022-12-20T00:46:27.817Z,3.46
2022-12-20T00:48:54.475Z,3.50
2022-12-20T00:51:20.930Z,3.55
2022-12-20T00:53:48.530Z,3.68
2022-12-20T00:56:16.084Z,3.61
2022-12-20T00:58:42.677Z,3.58
2022-12-20T01:01:09.333Z,3.62
2022-12-20T01:03:36.913Z,3.64
2022-12-20T01:06:04.450Z,3.60
2022-12-20T01:08:31.039Z,3.66
2022-12-20T01:10:58.640Z,3.71
2022-12-20T01:13:25.527Z,3.56
2022-12-20T01:15:52.808Z,3.49
2022-12-20T01:18:20.388Z,3.47
2022-12-20T01:20:47.046Z,3.54
2022-12-20T01:23:13.655Z,3.41
2022-12-20T01:25:41.234Z,3.37
2022-12-20T01:28:07.836Z,3.31
2022-12-20T01:30:35.408Z,3.28
2022-12-20T01:33:01.995Z,3.30
2022-12-20T01:35:28.437Z,3.21
2022-12-20T01:37:54.927Z,3.20
2022-12-20T01:40:21.450Z,3.24
2022-12-20T01:42:47.863Z,3.26
2022-12-20T01:45:14.305Z,3.26
2022-12-20T01:47:41.544Z,3.36
2022-12-20T01:50:08.153Z,3.34
2022-12-20T01:52:35.725Z,3.34
2022-12-20T01:55:03.335Z,3.34
2022-12-20T01:57:30.912Z,3.40
2022-12-20T01:59:58.511Z,3.46
2022-12-20T02:02:25.560Z,3.36
2022-12-20T02:04:52.694Z,3.38
2022-12-20T02:07:20.272Z,3.30
2022-12-20T02:09:46.873Z,3.41
2022-12-20T02:12:13.449Z,3.27
2022-12-20T02:14:42.427Z,3.28
2022-12-20T02:17:09.886Z,3.19
2022-12-20T02:19:38.252Z,3.29
2022-12-20T02:22:04.854Z,3.19
2022-12-20T02:24:31.442Z,3.15
2022-12-20T02:26:59.036Z,3.17
2022-12-20T02:29:25.929Z,3.15
2022-12-20T02:31:54.300Z,3.29
2022-12-20T02:34:21.813Z,3.14
2022-12-20T02:36:48.219Z,3.09
2022-12-20T02:39:15.003Z,3.07
2022-12-20T02:41:41.586Z,3.09
2022-12-20T02:44:08.187Z,3.10
2022-12-20T02:46:34.786Z,3.11
2022-12-20T02:49:02.424Z,3.23
2022-12-20T02:51:29.992Z,3.22
2022-12-20T02:53:57.554Z,3.18
2022-12-20T02:56:25.222Z,3.16
2022-12-20T02:58:52.799Z,3.12
2022-12-20T03:01:19.515Z,3.12
2022-12-20T03:03:47.013Z,3.13
2022-12-20T03:06:14.586Z,3.13
2022-12-20T03:08:41.049Z,3.20
2022-12-20T03:11:07.741Z,3.19
2022-12-20T03:13:36.337Z,3.20
2022-12-20T03:16:03.925Z,3.18
2022-12-20T03:18:31.527Z,3.23
2022-12-20T03:20:57.989Z,3.18
2022-12-20T03:23:24.454Z,3.32
2022-12-20T03:25:51.293Z,3.29
2022-12-20T03:28:18.869Z,3.19
2022-12-20T03:30:45.501Z,3.15
2022-12-20T03:33:13.081Z,3.15
2022-12-20T03:35:39.685Z,3.12
2022-12-20T03:38:07.295Z,3.10
2022-12-20T03:40:34.880Z,3.11
2022-12-20T03:43:02.467Z,3.10
2022-12-20T03:45:30.059Z,3.12
2022-12-20T03:47:56.641Z,3.12
2022-12-20T03:50:23.241Z,3.13
2022-12-20T03:52:50.836Z,3.15
2022-12-20T03:55:18.425Z,3.18
2022-12-20T03:57:46.040Z,3.10
2022-12-20T04:00:12.648Z,3.08
2022-12-20T04:02:40.452Z,3.06
2022-12-20T04:05:07.808Z,2.96
2022-12-20T04:07:34.388Z,2.93
2022-12-20T04:10:01.280Z,2.90
2022-12-20T04:12:27.759Z,2.91
2022-12-20T04:14:54.234Z,2.88
2022-12-20T04:17:21.751Z,2.91
2022-12-20T04:19:49.329Z,2.88
2022-12-20T04:22:15.943Z,2.87
2022-12-20T04:24:42.536Z,2.85
2022-12-20T04:27:11.108Z,2.93
2022-12-20T04:29:38.708Z,2.82
2022-12-20T04:32:05.288Z,2.81
2022-12-20T04:34:31.921Z,2.82
2022-12-20T04:36:59.492Z,2.86
2022-12-20T04:39:27.103Z,2.90
2022-12-20T04:41:54.042Z,2.90
2022-12-20T04:44:22.261Z,2.92
2022-12-20T04:46:49.898Z,2.96
2022-12-20T04:49:17.443Z,2.91
2022-12-20T04:51:44.035Z,2.92
2022-12-20T04:54:11.630Z,2.93
2022-12-20T04:56:38.229Z,2.88
2022-12-20T04:59:04.827Z,2.86
2022-12-20T05:01:31.596Z,2.82
2022-12-20T05:03:59.029Z,2.98
2022-12-20T05:06:26.598Z,2.85
2022-12-20T05:08:54.199Z,2.74
2022-12-20T05:11:20.803Z,2.75
2022-12-20T05:13:48.392Z,2.73
2022-12-20T05:16:16.049Z,2.74
2022-12-20T05:18:48.915Z,2.71
2022-12-20T05:21:16.303Z,2.72
2022-12-20T05:23:43.823Z,2.79
2022-12-20T05:26:10.420Z,2.69
2022-12-20T05:28:38.005Z,2.66
2022-12-20T05:31:05.611Z,2.65
2022-12-20T05:33:34.334Z,2.63
2022-12-20T05:36:01.812Z,2.59
2022-12-20T05:38:29.402Z,2.57
2022-12-20T05:40:56.087Z,2.57
2022-12-20T05:43:22.720Z,2.56
2022-12-20T05:45:49.205Z,2.56
2022-12-20T05:48:16.768Z,2.59
2022-12-20T05:50:43.242Z,2.63
2022-12-20T05:53:12.072Z,2.62
2022-12-20T05:55:39.514Z,2.63
2022-12-20T05:58:06.124Z,2.66
2022-12-20T06:00:32.706Z,2.68
2022-12-20T06:03:00.513Z,2.68
2022-12-20T06:05:27.891Z,2.74
2022-12-20T06:07:54.347Z,2.81
2022-12-20T06:10:20.798Z,2.79
2022-12-20T06:12:47.263Z,2.83
2022-12-20T06:15:14.234Z,2.77
2022-12-20T06:17:40.841Z,2.78
2022-12-20T06:20:07.414Z,2.79
2022-12-20T06:22:34.057Z,2.80
2022-12-20T06:25:01.615Z,2.85
2022-12-20T06:27:28.493Z,2.85
2022-12-20T06:29:54.926Z,2.86
2022-12-20T06:32:21.387Z,2.84
2022-12-20T06:34:47.847Z,2.86
2022-12-20T06:37:14.321Z,2.87
2022-12-20T06:39:40.756Z,2.92
2022-12-20T06:42:07.745Z,2.91
2022-12-20T06:44:34.359Z,2.92
2022-12-20T06:47:01.928Z,2.93
2022-12-20T06:49:29.521Z,3.04
2022-12-20T06:51:56.111Z,3.02
2022-12-20T06:54:23.693Z,3.07
2022-12-20T06:56:50.280Z,3.05
2022-12-20T06:59:17.890Z,3.05
2022-12-20T07:01:45.694Z,3.11
2022-12-20T07:04:13.040Z,3.17
2022-12-20T07:06:39.635Z,3.22
2022-12-20T07:09:06.261Z,3.23
2022-12-20T07:11:33.858Z,3.28
2022-12-20T07:14:00.950Z,3.31
2022-12-20T07:16:28.107Z,3.37
2022-12-20T07:18:55.649Z,3.37
2022-12-20T07:21:23.220Z,3.41
2022-12-20T07:23:49.703Z,3.40
2022-12-20T07:26:16.410Z,3.41
2022-12-20T07:28:44.006Z,3.46
2022-12-20T07:31:11.618Z,3.47
2022-12-20T07:33:39.219Z,3.44
2022-12-20T07:36:05.795Z,3.47
2022-12-20T07:38:33.389Z,3.48
2022-12-20T07:41:01.989Z,3.50
2022-12-20T07:43:28.621Z,3.51
2022-12-20T07:45:57.258Z,3.53
2022-12-20T07:48:24.904Z,3.51
2022-12-20T07:50:52.384Z,3.52
2022-12-20T07:53:18.821Z,3.66
2022-12-20T07:55:46.570Z,3.67
2022-12-20T07:58:14.151Z,3.60
2022-12-20T08:00:41.770Z,3.69
2022-12-20T08:03:09.433Z,3.63
2022-12-20T08:05:35.932Z,3.65
2022-12-20T08:08:02.407Z,3.66
2022-12-20T08:10:29.029Z,3.74
2022-12-20T08:12:56.722Z,3.82
2022-12-20T08:15:24.296Z,3.86
2022-12-20T08:17:50.882Z,3.89
2022-12-20T08:20:17.377Z,3.93
2022-12-20T08:22:44.065Z,4.00
2022-12-20T08:25:11.657Z,4.07
2022-12-20T08:27:38.126Z,4.15
2022-12-20T08:30:04.841Z,4.25
2022-12-20T08:32:31.425Z,4.33
2022-12-20T08:34:58.027Z,4.41
2022-12-20T08:37:24.464Z,4.50
2022-12-20T08:39:52.199Z,4.59
2022-12-20T08:42:18.800Z,4.68
2022-12-20T08:44:46.388Z,4.73
2022-12-20T08:47:13.987Z,4.74
2022-12-20T08:49:47.217Z,4.77
2022-12-20T08:52:15.249Z,4.79
2022-12-20T08:54:41.747Z,4.79
2022-12-20T08:57:08.407Z,4.82
2022-12-20T08:59:35.984Z,4.84
2022-12-20T09:02:02.675Z,4.77
2022-12-20T09:04:30.176Z,4.75
2022-12-20T09:06:56.612Z,4.79
2022-12-20T09:09:23.339Z,4.78
2022-12-20T09:11:49.941Z,4.75
2022-12-20T09:14:17.537Z,4.82
2022-12-20T09:16:43.960Z,4.81
2022-12-20T09:19:11.725Z,4.87
2022-12-20T09:21:38.333Z,5.03
2022-12-20T09:24:04.923Z,5.07
2022-12-20T09:26:31.857Z,5.16
2022-12-20T09:28:58.318Z,5.25
2022-12-20T09:31:24.873Z,5.35
2022-12-20T09:33:52.304Z,5.48
2022-12-20T09:36:19.885Z,5.58
2022-12-20T09:38:46.391Z,5.62
2022-12-20T09:41:15.323Z,5.72
2022-12-20T09:43:44.346Z,5.79
2022-12-20T09:46:11.431Z,5.82
2022-12-20T09:48:38.904Z,5.86
2022-12-20T09:51:05.392Z,5.91
2022-12-20T09:53:31.812Z,5.91
2022-12-20T09:55:58.665Z,5.89
2022-12-20T09:58:25.259Z,5.89
2022-12-20T10:00:54.230Z,5.87
2022-12-20T10:03:21.657Z,5.83
2022-12-20T10:05:49.247Z,5.85
2022-12-20T10:08:16.641Z,5.93
2022-12-20T10:10:43.240Z,6.00
2022-12-20T10:13:09.684Z,6.05
2022-12-20T10:15:36.159Z,6.06
2022-12-20T10:18:02.618Z,6.17
2022-12-20T10:20:29.094Z,6.21
2022-12-20T10:22:55.631Z,6.32
2022-12-20T10:25:22.798Z,6.43
2022-12-20T10:27:50.359Z,6.52
2022-12-20T10:30:17.954Z,6.58
2022-12-20T10:32:44.408Z,6.69
2022-12-20T10:35:11.118Z,6.81
2022-12-20T10:37:39.292Z,6.84
2022-12-20T10:40:08.339Z,6.92
2022-12-20T10:42:35.923Z,6.98
2022-12-20T10:45:02.374Z,7.00
2022-12-20T10:47:30.126Z,7.01
2022-12-20T10:49:56.572Z,7.00
2022-12-20T10:52:24.288Z,7.04
2022-12-20T10:54:50.737Z,7.07
2022-12-20T10:57:17.462Z,7.00
2022-12-20T10:59:44.039Z,6.94
2022-12-20T11:02:10.648Z,6.86
2022-12-20T11:04:37.239Z,6.80
2022-12-20T11:07:03.746Z,6.78
2022-12-20T11:09:30.196Z,6.65
2022-12-20T11:11:56.723Z,6.53
2022-12-20T11:14:23.777Z,6.50
2022-12-20T11:16:50.641Z,6.48
2022-12-20T11:19:17.829Z,6.51
2022-12-20T11:21:44.413Z,6.52
2022-12-20T11:24:11.009Z,6.52
2022-12-20T11:26:37.599Z,6.55
2022-12-20T11:29:05.231Z,6.54
2022-12-20T11:31:32.848Z,6.49
2022-12-20T11:34:00.405Z,6.46
2022-12-20T11:36:27.004Z,6.42
2022-12-20T11:38:53.458Z,6.47
2022-12-20T11:41:21.166Z,6.42
2022-12-20T11:44:23.221Z,6.45
2022-12-20T11:46:35.458Z,6.50
2022-12-20T11:49:02.017Z,6.62
2022-12-20T11:51:28.808Z,6.69
2022-12-20T11:53:55.239Z,6.76
2022-12-20T11:56:21.678Z,6.85
2022-12-20T11:58:48.094Z,7.06
2022-12-20T12:01:14.956Z,7.18
2022-12-20T12:03:41.380Z,7.28
2022-12-20T12:06:08.156Z,7.39
2022-12-20T12:08:35.725Z,7.47
2022-12-20T12:11:02.354Z,7.49
2022-12-20T12:13:28.807Z,7.53
2022-12-20T12:15:55.769Z,7.53
2022-12-20T12:18:23.123Z,7.48
2022-12-20T12:20:50.725Z,7.40
2022-12-20T12:23:18.285Z,7.35
2022-12-20T12:25:44.734Z,7.28
2022-12-20T12:28:11.165Z,7.24
2022-12-20T12:30:37.624Z,7.20
2022-12-20T12:33:07.437Z,7.13
2022-12-20T12:35:34.564Z,7.05
2022-12-20T12:38:01.871Z,7.00
2022-12-20T12:40:29.567Z,7.00
2022-12-20T12:42:55.991Z,6.99
2022-12-20T12:45:22.425Z,6.91
2022-12-20T12:47:48.835Z,6.90
2022-12-20T12:50:15.331Z,6.90
2022-12-20T12:52:41.944Z,6.90
2022-12-20T12:55:08.411Z,7.03
2022-12-20T12:57:34.839Z,6.94
2022-12-20T13:00:01.292Z,7.06
2022-12-20T13:02:27.870Z,7.05
2022-12-20T13:04:55.368Z,6.96
2022-12-20T13:07:21.842Z,6.96
2022-12-20T13:09:48.536Z,7.00
2022-12-20T13:12:15.106Z,7.06
2022-12-20T13:14:41.534Z,7.12
2022-12-20T13:17:13.008Z,7.30
2022-12-20T13:19:40.165Z,7.22
2022-12-20T13:22:06.673Z,7.19
2022-12-20T13:24:33.271Z,7.23
2022-12-20T13:26:59.692Z,7.27
2022-12-20T13:29:26.139Z,7.33
2022-12-20T13:31:54.532Z,7.27
2022-12-20T13:34:21.231Z,7.34
2022-12-20T13:36:48.096Z,7.30
2022-12-20T13:39:14.692Z,7.44
2022-12-20T13:41:41.161Z,7.48
2022-12-20T13:44:07.595Z,7.60
2022-12-20T13:46:34.050Z,7.66
2022-12-20T13:49:00.510Z,7.74
2022-12-20T13:51:27.010Z,7.88
2022-12-20T13:53:53.470Z,8.05
2022-12-20T13:56:19.881Z,8.21
2022-12-20T13:58:46.350Z,8.38
2022-12-20T14:01:12.794Z,8.50
2022-12-20T14:03:39.542Z,8.58
2022-12-20T14:06:06.108Z,8.63
2022-12-20T14:08:33.777Z,8.64
2022-12-20T14:11:01.360Z,8.65
2022-12-20T14:13:27.970Z,8.71
2022-12-20T14:15:54.485Z,8.85
2022-12-20T14:18:20.935Z,8.94
2022-12-20T14:20:47.324Z,8.97
2022-12-20T14:23:13.745Z,9.06
2022-12-20T14:25:40.203Z,9.22
2022-12-20T14:28:07.533Z,9.27
2022-12-20T14:30:34.199Z,9.30
2022-12-20T14:33:01.725Z,9.32
2022-12-20T14:35:28.327Z,9.38
2022-12-20T14:37:54.731Z,9.43
2022-12-20T14:40:21.183Z,9.49
2022-12-20T14:42:47.604Z,9.52
2022-12-20T14:45:14.099Z,9.56
2022-12-20T14:47:43.417Z,9.58
2022-12-20T14:50:09.842Z,9.56
2022-12-20T14:52:36.637Z,9.56
2022-12-20T14:55:08.188Z,9.53
2022-12-20T14:57:35.261Z,9.53
2022-12-20T15:00:01.762Z,9.53
2022-12-20T15:02:28.427Z,9.47
2022-12-20T15:04:55.045Z,9.47
2022-12-20T15:07:26.111Z,9.43
2022-12-20T15:09:53.665Z,9.42
2022-12-20T15:12:20.091Z,9.36
2022-12-20T15:14:46.819Z,9.31
2022-12-20T15:17:13.407Z,9.19
2022-12-20T15:19:42.585Z,9.06
2022-12-20T15:22:09.281Z,8.90
2022-12-20T15:24:35.688Z,8.83
2022-12-20T15:27:02.126Z,8.73
2022-12-20T15:29:28.547Z,8.58
2022-12-20T15:31:56.309Z,8.38
2022-12-20T15:34:22.813Z,8.18
2022-12-20T15:36:49.254Z,8.09
2022-12-20T15:39:15.890Z,7.99
2022-12-20T15:41:42.405Z,7.90
2022-12-20T15:44:08.821Z,7.85
2022-12-20T15:46:35.288Z,7.78
2022-12-20T15:49:01.777Z,7.78
2022-12-20T15:51:28.211Z,7.76
2022-12-20T15:53:54.674Z,7.77
2022-12-20T15:56:21.079Z,7.81
2022-12-20T15:58:47.540Z,8.02
2022-12-20T16:01:14.021Z,7.87
2022-12-20T16:03:40.624Z,7.86
2022-12-20T16:06:07.152Z,7.80
2022-12-20T16:08:33.564Z,7.84
2022-12-20T16:10:59.978Z,7.85
2022-12-20T16:13:26.405Z,7.84
2022-12-20T16:15:53.620Z,7.87
2022-12-20T16:18:21.210Z,7.84
2022-12-20T16:20:47.800Z,7.87
2022-12-20T16:23:15.379Z,7.83
2022-12-20T16:25:41.811Z,7.78
2022-12-20T16:28:08.325Z,7.77
2022-12-20T16:30:34.815Z,7.78
2022-12-20T16:33:01.233Z,7.81
2022-12-20T16:35:27.695Z,7.83
2022-12-20T16:37:54.143Z,7.85
2022-12-20T16:40:20.584Z,7.89
2022-12-20T16:42:47.068Z,7.85
2022-12-20T16:45:13.513Z,7.93
2022-12-20T16:47:41.262Z,8.02
2022-12-20T16:50:07.879Z,7.81
2022-12-20T16:52:35.452Z,7.81
2022-12-20T16:55:02.024Z,7.74
2022-12-20T16:57:28.465Z,7.73
2022-12-20T16:59:54.886Z,7.69
2022-12-20T17:02:21.396Z,7.70
2022-12-20T17:04:48.101Z,7.71
2022-12-20T17:07:14.576Z,7.71
2022-12-20T17:09:46.894Z,7.71
2022-12-20T17:12:13.363Z,7.73
2022-12-20T17:14:39.816Z,7.71
2022-12-20T17:17:06.280Z,7.75
2022-12-20T17:19:32.748Z,7.70
2022-12-20T17:24:43.333Z,7.57
2022-12-20T17:27:09.738Z,7.57
2022-12-20T17:29:36.154Z,7.64
2022-12-20T17:32:02.666Z,7.64
2022-12-20T17:34:29.158Z,7.59
2022-12-20T17:36:55.586Z,7.61
2022-12-20T17:39:22.002Z,7.64
2022-12-20T17:41:48.425Z,7.56
2022-12-20T17:44:15.911Z,7.54
2022-12-20T17:46:42.354Z,7.53
2022-12-20T17:49:08.799Z,7.42
2022-12-20T17:51:35.225Z,7.38
2022-12-20T17:54:01.652Z,7.26
2022-12-20T17:56:28.105Z,7.28
2022-12-20T17:58:54.537Z,7.25
2022-12-20T18:01:22.143Z,7.17
2022-12-20T18:04:06.152Z,7.14
2022-12-20T18:06:33.273Z,7.15
2022-12-20T18:08:59.727Z,7.12
2022-12-20T18:11:26.460Z,7.15
2022-12-20T18:13:52.874Z,7.20
2022-12-20T18:16:19.385Z,7.25
2022-12-20T18:18:45.879Z,7.27
2022-12-20T18:21:12.276Z,7.25
2022-12-20T18:23:38.713Z,7.30
2022-12-20T18:26:05.138Z,7.28
2022-12-20T18:28:31.586Z,7.31
2022-12-20T18:30:58.007Z,7.19
2022-12-20T18:33:24.414Z,7.19
2022-12-20T18:35:50.932Z,7.16
2022-12-20T18:38:17.376Z,7.27
2022-12-20T18:40:43.873Z,7.24
2022-12-20T18:43:10.333Z,7.25
2022-12-20T18:45:36.864Z,7.30
2022-12-20T18:48:03.387Z,7.35
2022-12-20T18:50:29.822Z,7.40
2022-12-20T18:53:01.096Z,7.42
2022-12-20T18:55:28.132Z,7.46
2022-12-20T18:57:55.722Z,7.55
2022-12-20T19:00:22.153Z,7.54
2022-12-20T19:02:48.970Z,7.43
2022-12-20T19:05:16.500Z,7.45
2022-12-20T19:07:43.108Z,7.40
2022-12-20T19:10:09.620Z,7.47
2022-12-20T19:12:36.084Z,7.42
2022-12-20T19:15:02.521Z,7.46
2022-12-20T19:17:28.922Z,7.46
2022-12-20T19:19:55.354Z,7.53
2022-12-20T19:22:21.939Z,7.58
2022-12-20T19:24:48.478Z,7.59
2022-12-20T19:27:14.923Z,7.65
2022-12-20T19:29:41.329Z,7.66
2022-12-20T19:32:07.796Z,7.66
2022-12-20T19:34:34.237Z,7.70
2022-12-20T19:37:00.670Z,7.65
2022-12-20T19:39:27.232Z,7.65
2022-12-20T19:42:22.892Z,7.58
2022-12-20T19:44:40.081Z,7.62
2022-12-20T19:47:06.646Z,7.53
2022-12-20T19:49:33.278Z,7.60
2022-12-20T19:51:59.776Z,7.54
2022-12-20T19:54:26.330Z,7.53
2022-12-20T19:56:52.810Z,7.53
2022-12-20T19:59:19.543Z,7.49
2022-12-20T20:01:46.205Z,7.48
2022-12-20T20:04:12.699Z,7.45
2022-12-20T20:06:39.164Z,7.46
2022-12-20T20:09:05.649Z,7.52
2022-12-20T20:11:32.070Z,7.49
2022-12-20T20:13:58.486Z,7.54
2022-12-20T20:16:25.074Z,7.51
2022-12-20T20:18:52.039Z,7.55
2022-12-20T20:21:18.447Z,7.60
2022-12-20T20:23:44.860Z,7.55
2022-12-20T20:26:11.305Z,7.54
2022-12-20T20:28:45.158Z,7.54
2022-12-20T20:31:12.000Z,7.55
2022-12-20T20:33:38.517Z,7.65
2022-12-20T20:36:04.961Z,7.62
2022-12-20T20:38:31.414Z,7.66
2022-12-20T20:40:57.840Z,7.62
2022-12-20T20:43:24.236Z,7.62
2022-12-20T20:45:50.635Z,7.67
2022-12-20T20:48:18.413Z,7.65
2022-12-20T20:50:45.005Z,7.73
2022-12-20T20:53:11.512Z,7.78
2022-12-20T20:55:37.962Z,7.82
2022-12-20T20:58:04.430Z,7.87
2022-12-20T21:00:30.854Z,7.91
2022-12-20T21:02:57.447Z,7.92
2022-12-20T21:08:10.371Z,7.99
2022-12-20T21:10:36.922Z,8.01
2022-12-20T21:13:03.486Z,8.06
2022-12-20T21:15:29.907Z,8.10
2022-12-20T21:17:56.391Z,8.14
2022-12-20T21:20:26.313Z,8.16
2022-12-20T21:22:53.081Z,8.16
2022-12-20T21:25:19.492Z,8.25
2022-12-20T21:27:45.911Z,8.17
2022-12-20T21:30:12.328Z,8.16
2022-12-20T21:32:38.945Z,8.13
2022-12-20T21:35:05.360Z,8.13
2022-12-20T21:37:31.791Z,8.11
2022-12-20T21:39:58.267Z,8.12
2022-12-20T21:42:24.697Z,8.10
2022-12-20T21:44:52.303Z,8.17
2022-12-20T21:47:18.781Z,8.16
2022-12-20T21:49:45.241Z,8.15
2022-12-20T21:52:11.645Z,8.15
2022-12-20T21:54:38.066Z,8.15
2022-12-20T21:57:04.507Z,8.19
2022-12-20T21:59:30.947Z,8.24
2022-12-20T22:01:57.540Z,8.29
2022-12-20T22:04:24.090Z,8.36
2022-12-20T22:06:50.531Z,8.42
2022-12-20T22:09:16.955Z,8.51
2022-12-20T22:11:43.419Z,8.63
2022-12-20T22:14:09.834Z,8.75
2022-12-20T22:16:36.354Z,8.87
2022-12-20T22:19:02.891Z,9.03
2022-12-20T22:21:29.379Z,9.06
2022-12-20T22:23:55.804Z,9.13
2022-12-20T22:26:22.278Z,9.22
2022-12-20T22:28:48.687Z,9.29
2022-12-20T22:31:15.166Z,9.30
2022-12-20T22:33:41.615Z,9.35
2022-12-20T22:36:08.169Z,9.43
2022-12-20T22:38:34.570Z,9.45
2022-12-20T22:41:01.008Z,9.50
2022-12-20T22:43:27.471Z,9.58
2022-12-20T22:45:53.892Z,9.61
2022-12-20T22:48:20.362Z,9.62
2022-12-20T22:50:46.753Z,9.66
2022-12-20T22:53:13.237Z,9.66
2022-12-20T22:55:39.639Z,9.67
2022-12-20T22:58:06.047Z,9.65
2022-12-20T23:00:32.551Z,9.66
2022-12-20T23:02:59.236Z,9.66
2022-12-20T23:05:25.807Z,9.70
2022-12-20T23:07:52.190Z,9.71
2022-12-20T23:10:18.650Z,9.68
2022-12-20T23:12:45.078Z,9.74
2022-12-20T23:15:11.489Z,9.70
2022-12-20T23:17:37.934Z,9.67
2022-12-20T23:20:04.356Z,9.67
2022-12-20T23:22:30.759Z,9.67
2022-12-20T23:24:57.236Z,9.66
2022-12-20T23:27:23.665Z,9.64
2022-12-20T23:29:50.083Z,9.63
2022-12-20T23:32:16.550Z,9.60
2022-12-20T23:34:42.998Z,9.58
2022-12-20T23:37:09.563Z,9.59
2022-12-20T23:39:35.976Z,9.57
2022-12-20T23:42:02.418Z,9.59
2022-12-20T23:44:28.868Z,9.58
2022-12-20T23:46:55.287Z,9.58
2022-12-20T23:49:21.742Z,9.57
2022-12-20T23:51:48.152Z,9.55
2022-12-20T23:54:14.571Z,9.56
2022-12-20T23:56:41.000Z,9.54
2022-12-20T23:59:07.407Z,9.54
